Brunssum, Netherlands
Current Conditions -  °F | °C
As of 6:50 PM on Friday 28 Nov 2014 (Local Time) from ETNG Reporting Station
Clear Clear  
Wind Chill: 33°   Ceiling: Unl
Heat Index: 41°   Visibility: 6mi
Dew Point: 37°   Wind: 16mph
Humidity: 87%   Direction: 90°E
Pressure: 29.8"   Gusts: 28mph
Location:  50.95°N, 5.97°E
Report Text: ETNG 281750Z 09014G24KT CAVOK 05/03 Q1009 NOSIG
Loading
Personal Weather Stations






























Interactive Weather Map New forecast layout! Learn more

10-Day Weather Forecast

Advertisements
Track Severe Weather on mobile